sensor_id;sensor_type;location;lat;lon;timestamp;P1;durP1;ratioP1;P2;durP2;ratioP2
151;SDS011;68;48.792;9.164;2022-09-21T00:00:51;10.80;;;7.05;;
151;SDS011;68;48.792;9.164;2022-09-21T00:03:18;10.43;;;7.10;;
151;SDS011;68;48.792;9.164;2022-09-21T00:05:45;13.48;;;7.68;;
151;SDS011;68;48.792;9.164;2022-09-21T00:08:13;13.90;;;6.70;;
151;SDS011;68;48.792;9.164;2022-09-21T00:10:40;10.90;;;7.18;;
151;SDS011;68;48.792;9.164;2022-09-21T00:13:09;11.32;;;7.35;;
151;SDS011;68;48.792;9.164;2022-09-21T00:15:38;20.10;;;8.27;;
151;SDS011;68;48.792;9.164;2022-09-21T00:18:05;9.77;;;7.13;;
151;SDS011;68;48.792;9.164;2022-09-21T00:20:32;16.08;;;7.35;;
151;SDS011;68;48.792;9.164;2022-09-21T00:22:59;11.13;;;7.57;;
151;SDS011;68;48.792;9.164;2022-09-21T00:25:26;14.05;;;7.93;;
151;SDS011;68;48.792;9.164;2022-09-21T00:27:52;13.82;;;8.23;;
151;SDS011;68;48.792;9.164;2022-09-21T00:30:19;11.80;;;7.70;;
151;SDS011;68;48.792;9.164;2022-09-21T00:32:47;13.57;;;8.18;;
151;SDS011;68;48.792;9.164;2022-09-21T00:35:14;15.63;;;9.25;;
151;SDS011;68;48.792;9.164;2022-09-21T00:37:41;15.95;;;9.55;;
151;SDS011;68;48.792;9.164;2022-09-21T00:40:08;16.00;;;9.60;;
151;SDS011;68;48.792;9.164;2022-09-21T00:42:35;16.88;;;10.60;;
151;SDS011;68;48.792;9.164;2022-09-21T00:45:02;15.52;;;9.70;;
151;SDS011;68;48.792;9.164;2022-09-21T00:47:45;19.52;;;10.27;;
151;SDS011;68;48.792;9.164;2022-09-21T00:50:16;14.60;;;9.65;;
151;SDS011;68;48.792;9.164;2022-09-21T00:52:46;17.70;;;10.05;;
151;SDS011;68;48.792;9.164;2022-09-21T00:55:18;17.15;;;9.65;;
151;SDS011;68;48.792;9.164;2022-09-21T00:57:48;15.70;;;9.68;;
151;SDS011;68;48.792;9.164;2022-09-21T01:00:18;16.92;;;10.30;;
151;SDS011;68;48.792;9.164;2022-09-21T01:02:45;15.90;;;9.73;;
151;SDS011;68;48.792;9.164;2022-09-21T01:05:14;18.67;;;9.57;;
151;SDS011;68;48.792;9.164;2022-09-21T01:07:41;14.13;;;9.15;;
151;SDS011;68;48.792;9.164;2022-09-21T01:10:12;20.27;;;9.57;;
151;SDS011;68;48.792;9.164;2022-09-21T01:12:45;15.45;;;9.90;;
151;SDS011;68;48.792;9.164;2022-09-21T01:15:25;14.05;;;9.23;;
151;SDS011;68;48.792;9.164;2022-09-21T01:18:04;17.00;;;9.48;;
151;SDS011;68;48.792;9.164;2022-09-21T01:26:39;15.35;;;9.32;;
151;SDS011;68;48.792;9.164;2022-09-21T01:29:18;10.73;;;8.15;;
151;SDS011;68;48.792;9.164;2022-09-21T01:31:49;11.07;;;8.38;;
151;SDS011;68;48.792;9.164;2022-09-21T01:34:21;18.55;;;8.55;;
151;SDS011;68;48.792;9.164;2022-09-21T01:36:52;15.07;;;8.48;;
151;SDS011;68;48.792;9.164;2022-09-21T01:39:22;14.75;;;8.60;;
151;SDS011;68;48.792;9.164;2022-09-21T01:41:51;12.02;;;8.48;;
151;SDS011;68;48.792;9.164;2022-09-21T01:44:21;12.88;;;8.27;;
151;SDS011;68;48.792;9.164;2022-09-21T01:46:50;13.50;;;8.20;;
151;SDS011;68;48.792;9.164;2022-09-21T01:49:19;11.15;;;7.65;;
151;SDS011;68;48.792;9.164;2022-09-21T01:51:50;15.32;;;8.70;;
151;SDS011;68;48.792;9.164;2022-09-21T01:54:32;12.60;;;8.40;;
151;SDS011;68;48.792;9.164;2022-09-21T01:57:05;11.07;;;7.88;;
151;SDS011;68;48.792;9.164;2022-09-21T01:59:41;12.68;;;7.97;;
151;SDS011;68;48.792;9.164;2022-09-21T02:02:16;11.45;;;8.10;;
151;SDS011;68;48.792;9.164;2022-09-21T02:04:45;16.25;;;9.10;;
151;SDS011;68;48.792;9.164;2022-09-21T02:07:12;10.55;;;7.60;;
151;SDS011;68;48.792;9.164;2022-09-21T02:09:43;12.25;;;7.93;;
151;SDS011;68;48.792;9.164;2022-09-21T02:12:12;12.32;;;7.72;;
151;SDS011;68;48.792;9.164;2022-09-21T02:14:40;15.60;;;8.80;;
151;SDS011;68;48.792;9.164;2022-09-21T02:17:14;14.38;;;8.32;;
151;SDS011;68;48.792;9.164;2022-09-21T02:19:56;12.43;;;8.50;;
151;SDS011;68;48.792;9.164;2022-09-21T02:22:34;8.48;;;7.25;;
151;SDS011;68;48.792;9.164;2022-09-21T02:25:08;12.57;;;8.52;;
151;SDS011;68;48.792;9.164;2022-09-21T02:27:40;10.98;;;8.23;;
151;SDS011;68;48.792;9.164;2022-09-21T02:30:14;13.05;;;8.10;;
151;SDS011;68;48.792;9.164;2022-09-21T02:32:44;12.43;;;8.10;;
151;SDS011;68;48.792;9.164;2022-09-21T02:35:19;14.35;;;8.00;;
151;SDS011;68;48.792;9.164;2022-09-21T02:37:53;15.52;;;8.40;;
151;SDS011;68;48.792;9.164;2022-09-21T02:40:27;12.63;;;8.35;;
151;SDS011;68;48.792;9.164;2022-09-21T02:42:59;13.88;;;8.02;;
151;SDS011;68;48.792;9.164;2022-09-21T02:45:30;11.82;;;7.95;;
151;SDS011;68;48.792;9.164;2022-09-21T02:48:01;10.20;;;8.00;;
151;SDS011;68;48.792;9.164;2022-09-21T02:50:34;13.13;;;7.55;;
151;SDS011;68;48.792;9.164;2022-09-21T02:53:04;11.27;;;7.50;;
151;SDS011;68;48.792;9.164;2022-09-21T02:55:32;9.45;;;7.25;;
151;SDS011;68;48.792;9.164;2022-09-21T02:58:00;10.75;;;7.35;;
151;SDS011;68;48.792;9.164;2022-09-21T03:00:30;13.88;;;8.10;;
151;SDS011;68;48.792;9.164;2022-09-21T03:02:59;13.15;;;7.78;;
151;SDS011;68;48.792;9.164;2022-09-21T03:05:40;13.98;;;7.78;;
151;SDS011;68;48.792;9.164;2022-09-21T03:08:07;13.20;;;8.13;;
151;SDS011;68;48.792;9.164;2022-09-21T03:10:34;14.32;;;8.35;;
151;SDS011;68;48.792;9.164;2022-09-21T03:13:04;12.30;;;7.90;;
151;SDS011;68;48.792;9.164;2022-09-21T03:15:32;10.75;;;7.50;;
151;SDS011;68;48.792;9.164;2022-09-21T03:17:59;11.57;;;7.50;;
151;SDS011;68;48.792;9.164;2022-09-21T03:20:28;16.23;;;8.52;;
151;SDS011;68;48.792;9.164;2022-09-21T03:22:56;14.75;;;8.63;;
151;SDS011;68;48.792;9.164;2022-09-21T03:25:23;14.05;;;8.70;;
151;SDS011;68;48.792;9.164;2022-09-21T03:27:50;12.95;;;8.80;;
151;SDS011;68;48.792;9.164;2022-09-21T03:30:18;13.77;;;8.63;;
151;SDS011;68;48.792;9.164;2022-09-21T03:32:46;13.75;;;8.38;;
151;SDS011;68;48.792;9.164;2022-09-21T03:35:14;11.23;;;8.52;;
151;SDS011;68;48.792;9.164;2022-09-21T03:37:40;12.73;;;8.50;;
151;SDS011;68;48.792;9.164;2022-09-21T03:40:08;13.15;;;8.00;;
151;SDS011;68;48.792;9.164;2022-09-21T03:42:36;11.35;;;7.57;;
151;SDS011;68;48.792;9.164;2022-09-21T03:45:03;12.05;;;8.27;;
151;SDS011;68;48.792;9.164;2022-09-21T03:47:33;14.82;;;8.68;;
151;SDS011;68;48.792;9.164;2022-09-21T03:50:02;15.15;;;7.70;;
151;SDS011;68;48.792;9.164;2022-09-21T03:52:31;12.48;;;8.60;;
151;SDS011;68;48.792;9.164;2022-09-21T03:55:00;13.63;;;7.60;;
151;SDS011;68;48.792;9.164;2022-09-21T03:57:27;13.70;;;8.23;;
151;SDS011;68;48.792;9.164;2022-09-21T03:59:53;11.23;;;7.10;;
151;SDS011;68;48.792;9.164;2022-09-21T04:02:20;13.63;;;7.78;;
151;SDS011;68;48.792;9.164;2022-09-21T04:04:47;12.68;;;8.93;;
151;SDS011;68;48.792;9.164;2022-09-21T04:07:15;15.50;;;9.90;;
151;SDS011;68;48.792;9.164;2022-09-21T04:09:42;11.70;;;8.93;;
151;SDS011;68;48.792;9.164;2022-09-21T04:12:08;12.18;;;8.82;;
151;SDS011;68;48.792;9.164;2022-09-21T04:14:35;14.32;;;9.55;;
151;SDS011;68;48.792;9.164;2022-09-21T04:17:02;16.67;;;10.63;;
151;SDS011;68;48.792;9.164;2022-09-21T04:19:29;17.52;;;10.85;;
151;SDS011;68;48.792;9.164;2022-09-21T04:21:56;18.55;;;10.15;;
151;SDS011;68;48.792;9.164;2022-09-21T04:24:24;13.35;;;8.70;;
151;SDS011;68;48.792;9.164;2022-09-21T04:26:51;16.00;;;9.57;;
151;SDS011;68;48.792;9.164;2022-09-21T04:29:18;21.60;;;9.43;;
151;SDS011;68;48.792;9.164;2022-09-21T04:31:45;15.70;;;9.93;;
151;SDS011;68;48.792;9.164;2022-09-21T04:34:12;10.43;;;8.25;;
151;SDS011;68;48.792;9.164;2022-09-21T04:36:39;11.52;;;8.70;;
151;SDS011;68;48.792;9.164;2022-09-21T04:39:07;12.65;;;8.55;;
151;SDS011;68;48.792;9.164;2022-09-21T04:41:35;13.18;;;9.75;;
151;SDS011;68;48.792;9.164;2022-09-21T04:44:02;13.70;;;8.90;;
151;SDS011;68;48.792;9.164;2022-09-21T04:46:32;14.73;;;9.43;;
151;SDS011;68;48.792;9.164;2022-09-21T04:48:58;12.10;;;9.18;;
151;SDS011;68;48.792;9.164;2022-09-21T04:51:25;14.35;;;9.05;;
151;SDS011;68;48.792;9.164;2022-09-21T04:53:52;11.02;;;8.75;;
151;SDS011;68;48.792;9.164;2022-09-21T04:56:19;16.23;;;9.10;;
151;SDS011;68;48.792;9.164;2022-09-21T04:58:47;19.77;;;9.90;;
151;SDS011;68;48.792;9.164;2022-09-21T05:01:13;15.30;;;10.50;;
151;SDS011;68;48.792;9.164;2022-09-21T05:03:40;17.10;;;10.55;;
151;SDS011;68;48.792;9.164;2022-09-21T05:06:08;14.25;;;10.70;;
151;SDS011;68;48.792;9.164;2022-09-21T05:08:37;14.90;;;10.90;;
151;SDS011;68;48.792;9.164;2022-09-21T05:11:22;20.95;;;11.15;;
151;SDS011;68;48.792;9.164;2022-09-21T05:13:52;19.83;;;10.43;;
151;SDS011;68;48.792;9.164;2022-09-21T05:16:19;17.20;;;11.45;;
151;SDS011;68;48.792;9.164;2022-09-21T05:18:46;14.25;;;10.40;;
151;SDS011;68;48.792;9.164;2022-09-21T05:21:13;18.65;;;12.07;;
151;SDS011;68;48.792;9.164;2022-09-21T05:23:40;16.10;;;9.93;;
151;SDS011;68;48.792;9.164;2022-09-21T05:26:10;21.42;;;12.10;;
151;SDS011;68;48.792;9.164;2022-09-21T05:28:37;14.98;;;10.45;;
151;SDS011;68;48.792;9.164;2022-09-21T05:31:10;17.20;;;11.07;;
151;SDS011;68;48.792;9.164;2022-09-21T05:33:50;17.60;;;11.50;;
151;SDS011;68;48.792;9.164;2022-09-21T05:36:26;18.90;;;11.55;;
151;SDS011;68;48.792;9.164;2022-09-21T05:39:00;15.65;;;11.27;;
151;SDS011;68;48.792;9.164;2022-09-21T05:41:28;15.13;;;10.65;;
151;SDS011;68;48.792;9.164;2022-09-21T05:43:55;13.20;;;10.48;;
151;SDS011;68;48.792;9.164;2022-09-21T05:46:26;40.50;;;11.90;;
151;SDS011;68;48.792;9.164;2022-09-21T05:49:01;33.30;;;11.60;;
151;SDS011;68;48.792;9.164;2022-09-21T05:51:32;33.30;;;12.00;;
151;SDS011;68;48.792;9.164;2022-09-21T05:54:09;26.50;;;10.90;;
151;SDS011;68;48.792;9.164;2022-09-21T05:56:44;21.77;;;10.82;;
151;SDS011;68;48.792;9.164;2022-09-21T05:59:23;31.05;;;10.35;;
151;SDS011;68;48.792;9.164;2022-09-21T06:02:05;33.78;;;11.20;;
151;SDS011;68;48.792;9.164;2022-09-21T06:04:40;19.83;;;10.30;;
151;SDS011;68;48.792;9.164;2022-09-21T06:07:08;17.10;;;10.55;;
151;SDS011;68;48.792;9.164;2022-09-21T06:09:34;19.20;;;10.45;;
151;SDS011;68;48.792;9.164;2022-09-21T06:12:04;20.35;;;10.00;;
151;SDS011;68;48.792;9.164;2022-09-21T06:14:31;15.32;;;10.75;;
151;SDS011;68;48.792;9.164;2022-09-21T06:16:58;16.77;;;10.70;;
151;SDS011;68;48.792;9.164;2022-09-21T06:19:26;20.85;;;11.75;;
151;SDS011;68;48.792;9.164;2022-09-21T06:21:52;18.10;;;11.10;;
151;SDS011;68;48.792;9.164;2022-09-21T06:24:19;20.73;;;11.52;;
151;SDS011;68;48.792;9.164;2022-09-21T06:26:46;17.25;;;11.95;;
151;SDS011;68;48.792;9.164;2022-09-21T06:29:13;20.20;;;11.82;;
151;SDS011;68;48.792;9.164;2022-09-21T06:31:47;19.15;;;12.95;;
151;SDS011;68;48.792;9.164;2022-09-21T06:34:17;20.27;;;12.80;;
151;SDS011;68;48.792;9.164;2022-09-21T06:36:45;24.63;;;13.95;;
151;SDS011;68;48.792;9.164;2022-09-21T06:39:12;19.73;;;12.65;;
151;SDS011;68;48.792;9.164;2022-09-21T06:41:39;21.48;;;12.70;;
151;SDS011;68;48.792;9.164;2022-09-21T06:44:05;23.13;;;13.18;;
151;SDS011;68;48.792;9.164;2022-09-21T06:46:32;23.42;;;12.05;;
151;SDS011;68;48.792;9.164;2022-09-21T06:48:59;18.75;;;11.38;;
151;SDS011;68;48.792;9.164;2022-09-21T06:51:25;18.77;;;11.60;;
151;SDS011;68;48.792;9.164;2022-09-21T06:53:57;17.38;;;12.30;;
151;SDS011;68;48.792;9.164;2022-09-21T06:56:24;25.52;;;13.07;;
151;SDS011;68;48.792;9.164;2022-09-21T06:58:51;20.02;;;12.50;;
151;SDS011;68;48.792;9.164;2022-09-21T07:01:18;18.25;;;11.85;;
151;SDS011;68;48.792;9.164;2022-09-21T07:03:47;17.60;;;12.10;;
151;SDS011;68;48.792;9.164;2022-09-21T07:06:15;19.20;;;13.27;;
151;SDS011;68;48.792;9.164;2022-09-21T07:08:44;25.23;;;13.80;;
151;SDS011;68;48.792;9.164;2022-09-21T07:11:12;29.13;;;12.88;;
151;SDS011;68;48.792;9.164;2022-09-21T07:13:40;25.50;;;13.55;;
151;SDS011;68;48.792;9.164;2022-09-21T07:16:07;18.15;;;12.27;;
151;SDS011;68;48.792;9.164;2022-09-21T07:18:34;20.73;;;12.55;;
151;SDS011;68;48.792;9.164;2022-09-21T07:21:02;17.85;;;11.90;;
151;SDS011;68;48.792;9.164;2022-09-21T07:23:29;23.50;;;12.30;;
151;SDS011;68;48.792;9.164;2022-09-21T07:25:59;18.85;;;11.45;;
151;SDS011;68;48.792;9.164;2022-09-21T07:28:28;23.50;;;12.40;;
151;SDS011;68;48.792;9.164;2022-09-21T07:30:56;18.30;;;11.85;;
151;SDS011;68;48.792;9.164;2022-09-21T07:33:23;23.15;;;11.73;;
151;SDS011;68;48.792;9.164;2022-09-21T07:35:50;18.20;;;10.90;;
151;SDS011;68;48.792;9.164;2022-09-21T07:38:23;19.70;;;11.30;;
151;SDS011;68;48.792;9.164;2022-09-21T08:01:51;20.65;;;10.63;;
151;SDS011;68;48.792;9.164;2022-09-21T08:07:39;15.10;;;10.50;;
151;SDS011;68;48.792;9.164;2022-09-21T08:10:06;14.02;;;9.55;;
151;SDS011;68;48.792;9.164;2022-09-21T08:12:34;13.55;;;9.90;;
151;SDS011;68;48.792;9.164;2022-09-21T08:15:01;18.98;;;8.90;;
151;SDS011;68;48.792;9.164;2022-09-21T08:17:29;11.25;;;7.60;;
151;SDS011;68;48.792;9.164;2022-09-21T08:19:56;12.05;;;8.27;;
151;SDS011;68;48.792;9.164;2022-09-21T08:22:23;14.48;;;7.38;;
151;SDS011;68;48.792;9.164;2022-09-21T08:24:50;12.80;;;8.30;;
151;SDS011;68;48.792;9.164;2022-09-21T08:27:17;10.07;;;6.10;;
151;SDS011;68;48.792;9.164;2022-09-21T08:29:44;14.43;;;6.80;;
151;SDS011;68;48.792;9.164;2022-09-21T08:32:11;9.55;;;5.70;;
151;SDS011;68;48.792;9.164;2022-09-21T08:34:40;6.70;;;5.50;;
151;SDS011;68;48.792;9.164;2022-09-21T08:37:06;9.35;;;6.35;;
151;SDS011;68;48.792;9.164;2022-09-21T08:39:34;12.38;;;6.47;;
151;SDS011;68;48.792;9.164;2022-09-21T08:42:09;8.05;;;6.10;;
151;SDS011;68;48.792;9.164;2022-09-21T08:44:48;8.65;;;6.10;;
151;SDS011;68;48.792;9.164;2022-09-21T08:47:20;7.72;;;5.78;;
151;SDS011;68;48.792;9.164;2022-09-21T08:49:56;9.93;;;5.65;;
151;SDS011;68;48.792;9.164;2022-09-21T08:52:26;7.07;;;5.47;;
151;SDS011;68;48.792;9.164;2022-09-21T08:54:54;11.18;;;5.30;;
151;SDS011;68;48.792;9.164;2022-09-21T08:57:25;14.35;;;5.70;;
151;SDS011;68;48.792;9.164;2022-09-21T08:59:55;8.98;;;5.57;;
151;SDS011;68;48.792;9.164;2022-09-21T09:02:29;10.02;;;6.03;;
151;SDS011;68;48.792;9.164;2022-09-21T09:05:09;9.15;;;5.22;;
151;SDS011;68;48.792;9.164;2022-09-21T09:07:55;10.18;;;5.28;;
151;SDS011;68;48.792;9.164;2022-09-21T09:10:40;14.13;;;5.22;;
151;SDS011;68;48.792;9.164;2022-09-21T09:13:21;7.45;;;5.72;;
151;SDS011;68;48.792;9.164;2022-09-21T09:16:01;8.35;;;5.35;;
151;SDS011;68;48.792;9.164;2022-09-21T09:18:38;7.65;;;4.70;;
151;SDS011;68;48.792;9.164;2022-09-21T09:21:12;10.73;;;5.13;;
151;SDS011;68;48.792;9.164;2022-09-21T09:23:45;10.48;;;6.00;;
151;SDS011;68;48.792;9.164;2022-09-21T09:26:16;8.88;;;5.78;;
151;SDS011;68;48.792;9.164;2022-09-21T09:28:48;14.60;;;5.68;;
151;SDS011;68;48.792;9.164;2022-09-21T09:31:20;8.38;;;4.68;;
151;SDS011;68;48.792;9.164;2022-09-21T09:33:51;7.30;;;4.85;;
151;SDS011;68;48.792;9.164;2022-09-21T09:36:24;6.85;;;4.38;;
151;SDS011;68;48.792;9.164;2022-09-21T09:38:55;10.02;;;4.53;;
151;SDS011;68;48.792;9.164;2022-09-21T09:41:36;6.10;;;4.35;;
151;SDS011;68;48.792;9.164;2022-09-21T09:44:22;6.10;;;3.85;;
151;SDS011;68;48.792;9.164;2022-09-21T09:47:05;4.78;;;3.60;;
151;SDS011;68;48.792;9.164;2022-09-21T09:49:44;5.40;;;3.40;;
151;SDS011;68;48.792;9.164;2022-09-21T09:52:26;4.93;;;3.60;;
151;SDS011;68;48.792;9.164;2022-09-21T09:54:53;8.00;;;3.35;;
151;SDS011;68;48.792;9.164;2022-09-21T09:57:22;9.63;;;3.60;;
151;SDS011;68;48.792;9.164;2022-09-21T09:59:53;3.67;;;2.85;;
151;SDS011;68;48.792;9.164;2022-09-21T10:02:24;5.07;;;3.00;;
151;SDS011;68;48.792;9.164;2022-09-21T10:04:55;4.20;;;3.10;;
151;SDS011;68;48.792;9.164;2022-09-21T10:07:33;4.38;;;3.38;;
151;SDS011;68;48.792;9.164;2022-09-21T10:10:02;4.20;;;2.65;;
151;SDS011;68;48.792;9.164;2022-09-21T10:12:47;5.57;;;3.10;;
151;SDS011;68;48.792;9.164;2022-09-21T10:15:16;3.53;;;2.67;;
151;SDS011;68;48.792;9.164;2022-09-21T10:17:44;5.95;;;2.85;;
151;SDS011;68;48.792;9.164;2022-09-21T10:20:12;6.22;;;2.90;;
151;SDS011;68;48.792;9.164;2022-09-21T10:22:42;3.75;;;2.70;;
151;SDS011;68;48.792;9.164;2022-09-21T10:25:13;3.50;;;2.58;;
151;SDS011;68;48.792;9.164;2022-09-21T10:27:42;3.85;;;2.50;;
151;SDS011;68;48.792;9.164;2022-09-21T10:30:30;2.85;;;2.20;;
151;SDS011;68;48.792;9.164;2022-09-21T10:33:00;5.18;;;2.40;;
151;SDS011;68;48.792;9.164;2022-09-21T10:35:27;2.75;;;2.22;;
151;SDS011;68;48.792;9.164;2022-09-21T10:38:13;3.78;;;2.20;;
151;SDS011;68;48.792;9.164;2022-09-21T10:40:42;4.40;;;2.72;;
151;SDS011;68;48.792;9.164;2022-09-21T10:43:19;4.35;;;2.20;;
151;SDS011;68;48.792;9.164;2022-09-21T10:45:53;6.40;;;2.38;;
151;SDS011;68;48.792;9.164;2022-09-21T10:48:22;3.90;;;2.50;;
151;SDS011;68;48.792;9.164;2022-09-21T10:50:51;4.85;;;2.67;;
151;SDS011;68;48.792;9.164;2022-09-21T10:53:22;2.83;;;2.28;;
151;SDS011;68;48.792;9.164;2022-09-21T10:55:54;3.95;;;2.20;;
151;SDS011;68;48.792;9.164;2022-09-21T10:58:23;11.60;;;2.78;;
151;SDS011;68;48.792;9.164;2022-09-21T11:00:51;3.70;;;3.25;;
151;SDS011;68;48.792;9.164;2022-09-21T11:06:14;2.80;;;2.10;;
151;SDS011;68;48.792;9.164;2022-09-21T11:08:47;4.22;;;2.20;;
151;SDS011;68;48.792;9.164;2022-09-21T11:11:24;4.80;;;3.47;;
151;SDS011;68;48.792;9.164;2022-09-21T11:14:05;6.90;;;3.08;;
151;SDS011;68;48.792;9.164;2022-09-21T11:16:43;4.18;;;2.97;;
151;SDS011;68;48.792;9.164;2022-09-21T11:19:16;3.88;;;2.90;;
151;SDS011;68;48.792;9.164;2022-09-21T11:21:51;5.72;;;3.15;;
151;SDS011;68;48.792;9.164;2022-09-21T11:24:29;3.83;;;3.40;;
151;SDS011;68;48.792;9.164;2022-09-21T11:27:02;4.45;;;3.03;;
151;SDS011;68;48.792;9.164;2022-09-21T11:29:39;4.43;;;3.05;;
151;SDS011;68;48.792;9.164;2022-09-21T11:32:26;3.35;;;2.70;;
151;SDS011;68;48.792;9.164;2022-09-21T11:35:06;4.10;;;3.00;;
151;SDS011;68;48.792;9.164;2022-09-21T11:38:10;4.55;;;3.10;;
151;SDS011;68;48.792;9.164;2022-09-21T11:40:48;3.95;;;2.67;;
151;SDS011;68;48.792;9.164;2022-09-21T11:43:39;3.10;;;2.70;;
151;SDS011;68;48.792;9.164;2022-09-21T11:46:19;4.20;;;2.83;;
151;SDS011;68;48.792;9.164;2022-09-21T11:48:53;4.15;;;2.50;;
151;SDS011;68;48.792;9.164;2022-09-21T11:51:47;4.18;;;2.90;;
151;SDS011;68;48.792;9.164;2022-09-21T11:54:34;7.22;;;2.90;;
151;SDS011;68;48.792;9.164;2022-09-21T11:57:18;4.60;;;2.67;;
151;SDS011;68;48.792;9.164;2022-09-21T11:59:53;2.33;;;2.20;;
151;SDS011;68;48.792;9.164;2022-09-21T12:05:35;3.13;;;2.17;;
151;SDS011;68;48.792;9.164;2022-09-21T12:08:25;4.85;;;2.20;;
151;SDS011;68;48.792;9.164;2022-09-21T12:11:10;2.92;;;2.00;;
151;SDS011;68;48.792;9.164;2022-09-21T12:13:48;2.50;;;1.85;;
151;SDS011;68;48.792;9.164;2022-09-21T12:16:21;3.13;;;2.00;;
151;SDS011;68;48.792;9.164;2022-09-21T12:18:55;3.30;;;2.05;;
151;SDS011;68;48.792;9.164;2022-09-21T12:21:29;2.10;;;2.00;;
151;SDS011;68;48.792;9.164;2022-09-21T12:24:00;3.30;;;2.00;;
151;SDS011;68;48.792;9.164;2022-09-21T12:26:31;1.75;;;1.73;;
151;SDS011;68;48.792;9.164;2022-09-21T12:29:06;4.47;;;1.95;;
151;SDS011;68;48.792;9.164;2022-09-21T12:31:41;2.58;;;1.88;;
151;SDS011;68;48.792;9.164;2022-09-21T12:34:16;2.50;;;1.80;;
151;SDS011;68;48.792;9.164;2022-09-21T12:36:52;5.50;;;1.92;;
151;SDS011;68;48.792;9.164;2022-09-21T12:39:26;2.15;;;1.83;;
151;SDS011;68;48.792;9.164;2022-09-21T12:41:58;3.60;;;1.90;;
151;SDS011;68;48.792;9.164;2022-09-21T12:44:38;4.38;;;2.90;;
151;SDS011;68;48.792;9.164;2022-09-21T12:47:18;4.70;;;2.25;;
151;SDS011;68;48.792;9.164;2022-09-21T12:49:51;2.00;;;1.80;;
151;SDS011;68;48.792;9.164;2022-09-21T12:52:22;4.07;;;2.10;;
151;SDS011;68;48.792;9.164;2022-09-21T12:54:52;4.22;;;1.60;;
151;SDS011;68;48.792;9.164;2022-09-21T12:57:29;5.47;;;2.10;;
151;SDS011;68;48.792;9.164;2022-09-21T13:00:09;3.90;;;2.03;;
151;SDS011;68;48.792;9.164;2022-09-21T13:02:40;4.82;;;1.90;;
151;SDS011;68;48.792;9.164;2022-09-21T13:05:10;2.20;;;2.00;;
151;SDS011;68;48.792;9.164;2022-09-21T13:07:49;4.47;;;2.03;;
151;SDS011;68;48.792;9.164;2022-09-21T13:10:42;2.20;;;1.90;;
151;SDS011;68;48.792;9.164;2022-09-21T13:13:20;3.53;;;2.00;;
151;SDS011;68;48.792;9.164;2022-09-21T13:15:52;2.88;;;2.00;;
151;SDS011;68;48.792;9.164;2022-09-21T13:18:21;2.70;;;2.08;;
151;SDS011;68;48.792;9.164;2022-09-21T13:20:50;3.08;;;1.88;;
151;SDS011;68;48.792;9.164;2022-09-21T13:23:20;2.47;;;1.90;;
151;SDS011;68;48.792;9.164;2022-09-21T13:25:57;2.63;;;1.92;;
151;SDS011;68;48.792;9.164;2022-09-21T13:28:40;1.92;;;1.90;;
151;SDS011;68;48.792;9.164;2022-09-21T13:31:29;1.90;;;1.70;;
151;SDS011;68;48.792;9.164;2022-09-21T13:34:19;2.20;;;1.85;;
151;SDS011;68;48.792;9.164;2022-09-21T13:43:15;1.95;;;1.70;;
151;SDS011;68;48.792;9.164;2022-09-21T13:45:49;2.17;;;1.90;;
151;SDS011;68;48.792;9.164;2022-09-21T13:48:19;2.17;;;1.90;;
151;SDS011;68;48.792;9.164;2022-09-21T13:50:54;2.22;;;1.70;;
151;SDS011;68;48.792;9.164;2022-09-21T13:53:28;2.25;;;1.67;;
151;SDS011;68;48.792;9.164;2022-09-21T13:56:00;1.80;;;1.70;;
151;SDS011;68;48.792;9.164;2022-09-21T13:58:33;2.80;;;1.85;;
151;SDS011;68;48.792;9.164;2022-09-21T14:01:05;2.75;;;1.90;;
151;SDS011;68;48.792;9.164;2022-09-21T14:03:44;3.35;;;2.20;;
151;SDS011;68;48.792;9.164;2022-09-21T14:06:15;1.80;;;1.70;;
151;SDS011;68;48.792;9.164;2022-09-21T14:08:46;3.60;;;1.85;;
151;SDS011;68;48.792;9.164;2022-09-21T14:11:16;2.10;;;1.67;;
151;SDS011;68;48.792;9.164;2022-09-21T14:13:58;2.15;;;1.70;;
151;SDS011;68;48.792;9.164;2022-09-21T14:16:50;2.20;;;1.70;;
151;SDS011;68;48.792;9.164;2022-09-21T14:22:34;2.22;;;1.90;;
151;SDS011;68;48.792;9.164;2022-09-21T14:25:19;3.20;;;2.00;;
151;SDS011;68;48.792;9.164;2022-09-21T14:27:52;2.40;;;1.90;;
151;SDS011;68;48.792;9.164;2022-09-21T14:30:24;2.40;;;1.90;;
151;SDS011;68;48.792;9.164;2022-09-21T14:33:00;2.25;;;1.85;;
151;SDS011;68;48.792;9.164;2022-09-21T14:35:43;1.90;;;1.88;;
151;SDS011;68;48.792;9.164;2022-09-21T14:38:15;1.92;;;1.80;;
151;SDS011;68;48.792;9.164;2022-09-21T14:40:45;1.88;;;1.85;;
151;SDS011;68;48.792;9.164;2022-09-21T14:43:17;2.13;;;1.90;;
151;SDS011;68;48.792;9.164;2022-09-21T14:45:58;4.32;;;1.85;;
151;SDS011;68;48.792;9.164;2022-09-21T14:48:46;2.38;;;2.00;;
151;SDS011;68;48.792;9.164;2022-09-21T14:51:25;2.47;;;2.10;;
151;SDS011;68;48.792;9.164;2022-09-21T14:54:10;2.10;;;1.98;;
151;SDS011;68;48.792;9.164;2022-09-21T14:56:50;3.38;;;1.90;;
151;SDS011;68;48.792;9.164;2022-09-21T14:59:28;4.00;;;2.10;;
151;SDS011;68;48.792;9.164;2022-09-21T15:02:11;2.65;;;1.90;;
151;SDS011;68;48.792;9.164;2022-09-21T15:04:56;2.20;;;1.80;;
151;SDS011;68;48.792;9.164;2022-09-21T15:07:35;3.70;;;1.98;;
151;SDS011;68;48.792;9.164;2022-09-21T15:10:27;2.72;;;2.00;;
151;SDS011;68;48.792;9.164;2022-09-21T15:13:16;3.08;;;2.10;;
151;SDS011;68;48.792;9.164;2022-09-21T15:16:00;2.40;;;2.05;;
151;SDS011;68;48.792;9.164;2022-09-21T15:18:43;2.22;;;1.90;;
151;SDS011;68;48.792;9.164;2022-09-21T15:21:18;3.10;;;2.20;;
151;SDS011;68;48.792;9.164;2022-09-21T15:23:48;2.90;;;2.10;;
151;SDS011;68;48.792;9.164;2022-09-21T15:26:19;2.40;;;2.00;;
151;SDS011;68;48.792;9.164;2022-09-21T15:28:52;2.70;;;2.00;;
151;SDS011;68;48.792;9.164;2022-09-21T15:31:20;3.22;;;1.98;;
151;SDS011;68;48.792;9.164;2022-09-21T15:33:47;2.20;;;2.00;;
151;SDS011;68;48.792;9.164;2022-09-21T15:36:19;2.00;;;1.80;;
151;SDS011;68;48.792;9.164;2022-09-21T15:38:48;1.90;;;1.80;;
151;SDS011;68;48.792;9.164;2022-09-21T15:41:35;2.50;;;1.95;;
151;SDS011;68;48.792;9.164;2022-09-21T15:44:05;2.42;;;1.80;;
151;SDS011;68;48.792;9.164;2022-09-21T15:46:41;3.25;;;1.90;;
151;SDS011;68;48.792;9.164;2022-09-21T15:49:11;1.92;;;1.80;;
151;SDS011;68;48.792;9.164;2022-09-21T15:51:40;2.45;;;1.80;;
151;SDS011;68;48.792;9.164;2022-09-21T15:54:13;2.55;;;2.17;;
151;SDS011;68;48.792;9.164;2022-09-21T15:56:49;3.72;;;2.58;;
151;SDS011;68;48.792;9.164;2022-09-21T15:59:16;3.38;;;1.98;;
151;SDS011;68;48.792;9.164;2022-09-21T16:01:47;2.17;;;2.00;;
151;SDS011;68;48.792;9.164;2022-09-21T16:04:19;1.85;;;1.83;;
151;SDS011;68;48.792;9.164;2022-09-21T16:06:55;2.00;;;1.90;;
151;SDS011;68;48.792;9.164;2022-09-21T16:09:31;2.35;;;1.98;;
151;SDS011;68;48.792;9.164;2022-09-21T16:15:07;2.28;;;2.10;;
151;SDS011;68;48.792;9.164;2022-09-21T16:17:57;2.40;;;2.25;;
151;SDS011;68;48.792;9.164;2022-09-21T16:20:37;2.65;;;2.15;;
151;SDS011;68;48.792;9.164;2022-09-21T16:23:11;2.70;;;2.30;;
151;SDS011;68;48.792;9.164;2022-09-21T16:25:40;2.75;;;2.25;;
151;SDS011;68;48.792;9.164;2022-09-21T16:28:33;2.33;;;2.10;;
151;SDS011;68;48.792;9.164;2022-09-21T16:33:56;2.33;;;2.13;;
151;SDS011;68;48.792;9.164;2022-09-21T16:36:35;3.47;;;2.30;;
151;SDS011;68;48.792;9.164;2022-09-21T16:39:07;2.25;;;2.13;;
151;SDS011;68;48.792;9.164;2022-09-21T16:41:36;4.53;;;2.28;;
151;SDS011;68;48.792;9.164;2022-09-21T16:44:08;2.20;;;2.00;;
151;SDS011;68;48.792;9.164;2022-09-21T16:46:45;2.28;;;2.10;;
151;SDS011;68;48.792;9.164;2022-09-21T16:49:13;2.53;;;1.92;;
151;SDS011;68;48.792;9.164;2022-09-21T16:51:42;3.20;;;2.10;;
151;SDS011;68;48.792;9.164;2022-09-21T16:54:10;2.75;;;2.10;;
151;SDS011;68;48.792;9.164;2022-09-21T16:56:37;4.72;;;2.50;;
151;SDS011;68;48.792;9.164;2022-09-21T16:59:12;2.78;;;2.47;;
151;SDS011;68;48.792;9.164;2022-09-21T17:01:44;4.00;;;2.58;;
151;SDS011;68;48.792;9.164;2022-09-21T17:04:13;4.18;;;2.60;;
151;SDS011;68;48.792;9.164;2022-09-21T17:06:39;2.67;;;2.28;;
151;SDS011;68;48.792;9.164;2022-09-21T17:09:14;3.38;;;2.70;;
151;SDS011;68;48.792;9.164;2022-09-21T17:11:43;3.20;;;2.88;;
151;SDS011;68;48.792;9.164;2022-09-21T17:14:10;3.05;;;2.15;;